SMRA00 UAOL 191500
AAXX 19151
01001 41465 40404 10000 21021 39892 49904 53003 70272 84500=
01002 46/// /1310 11041 21068 30169 40178 56004=
01003 41420 80712 11015 21030 30108 40122 56012 77173 885//=
01006 46/// /1404 11045 21053 30182 40198 50000=
01007 46/// /1207 11011 21066 30152 40162 57004=
01008 41585 51206 11017 21059 30126 40162 57003 70222 85530=
01009 46/// /1509 11013 2//// 30214 40221 51007=
01010 26/// /1407 11043 21091 30005 40022 54001 333 60005=
01011 46/// /1309 11040 21051 30231 40242 52006=
01015 46/// /1509 11066 21137=
01016 46/// /1306 11027 21032 30206 40222 54002=
01017 46/// /0710 11015 21029 30137 40145 50003=
01020 46/// /0812 11007 21011 30103 40114 57008=
01023 21989 22801 11211 21229 39947 40051 54001 70120 80008 333 60005=
01025 47/84 01805 11068 21126 30022 40035 52001 700//=
01026 21989 21903 11071 21129 39890 40036 52001 70200 80008 333 60005=
01028 41565 60606 11005 21015 30067 40087 57007 70222 86500=
01033 46/// ///// 11029 21081 39994 40026 54001=
01035 46/// ///// 11134 2////=
01036 26/// /2405 11129 2//// 39168 40036 55004 333 60005=
01037 46/// /1502 11113 21140 30032 40058 55002=
01042 46/// /1703 11089 21092=
01043 46/// /1507 11065 2////=
01044 46/// /1006 11040 21077 30035 40044 57005=
01046 46/// /1505 11093 21143 30045 40052 57001=
01047 41586 61803 11208 21228 39683 40093 52002 70172 86020=
01049 26/// /2004 11129 21155 30063 40067 54000 333 60005=
01052 26/// /1803 11067 21087 39944 40046 56006 333 60005=
01055 46/// /1303 11019 21052 30029 40047 56012=
01058 26/// /1403 11271 21297 39587 40102 55001 333 60005=
01059 46/// /1505 11114 21139 30052 40062 57002=
01062 41660 71010 11014 21037 30143 40156 57005 72682 878//=
01064 46/// /1905 11137 21143 39326 40073 53005=
01065 26/// /2401 11202 21224 39914 40090 53007 333 60005=
01068 46/// /2202 11033 21064 30025 40043 57015=
01074 46/// /2306 11024 21036 30013 40028 56024=
01076 26/// /1405 11097 21111 30020 40062 53002 333 69925=
01078 46/// /2304 11016 21021 30016 40026 57021=
01082 26/// ///// 11129 21146 30021 40093 53014 333 60005=
01083 46/// /2208 11026 21038 30014 40031 56014=
01084 26/// /1903 11111 21131 333 60005=
01086 46/// /2110 11072 21089 39852 40042 55003=
01088 46/// /1909 11081 21096 30012 40062 53008=
01089 46/// /1707 11104 21122 39969 40080 53011=
01092 46/// /2209 11036 21055=
01098 26/// /2012 11057 21074 30036 40055 53009 333 69915=
01099 46/// /1910 11068 21086 30045 40062 53012=
01102 46/// /1513 11019 21071 39958 49977 53007=
01105 46/// /0609 11046 21087=
01107 46/// /1604 11010 21070 39988 49992 52003=
01108 26/// /1406 11040 2//// 39974 49985 52005 333 60005=
01112 46/// /1207 11029 21085 39977 49986 52003=
01114 46/// /0603 11094 21132 39987 49998 53008=
01115 21889 31310 11020 21082 39974 49995 52007 70200 83070 333 60005=
01116 46/// /0702 11038 21120 39968 49990 53005=
01121 46/// /1211 11033 21096 39982 49995 52009=
01122 46/// /2001 11126 21156 39925 40020 53006=
01124 26/// ///// 11074 21119 333 60005=
01132 26/// /1203 11079 21127 39621 40022 52006 333 60005=
01133 46/// /1202 11184 21205=
01135 26/// /3201 11075 21131 39862 40019 53008 333 60005=
01136 46/// /1110 11060 21107=
01139 46/// /0906 11010 21057 39997 40002 52006=
01143 46/// /1403 11065 21143=
01144 46/// /1109 11038 21097=
01146 26/// /1002 11079 21138 333 60005=
01147 26/// /1007 11109 21153 333 60005=
01148 46/// /1303 11078 21144=
01150 26/// /0806 11098 21156 333 60005=
01151 46/// /0706 11068 21149 39938 40027 53007=
01152 41989 60810 11048 21114 39990 40006 52003 70222 81038=
01158 26/// ///// 11062 21140 30019 40029 52005 333 60005=
01161 46/// /0607 11032 21088 30002 40013 52005=
01162 46/// /1408 11036 21108 30012 40017 55001=
01167 41988 12903 11065 21104 30011 40017 52002 70121 80008=
01169 26/// ///// 11085 21149 39989 40037 52005 333 60005=
01180 46/// /1902 11076 21143 39970 40029 52003=
01183 46/// /1206 11077 21134 39999 40032 52003=
01192 26/// /2502 11121 21173 333 60005=
01198 26/// ///// 11115 21160 39799 40062 55002 333 60005=
01199 46/// /0802 11228 21251 39592 40106 51003=
01203 46/// /1711 10026 21027 39886 49935 50000=
01205 46/// /1605 10030 21033 39895 49940 53004=
01209 46/// /3101 10023 21056 39862 49952 53003=
01210 41587 61405 10026 21043 39920 49946 52004 70222 82261=
01212 26/// /1607 10032 21042 39931 49949 52005 333 60005=
01214 46/// /0903 10020 21058=
01217 46/// /0403 11022 21074 39956 49960 53006=
01218 26/// /1509 10002 21114 39955 49977 52005 333 60005=
01220 46/// /1604 11121 21135=
01221 46/// ///// 11088 21138=
01223 46/// /0903 10000 21057 39879 49956 52008=
01224 26/// ///// 10034 21049 333 60005=
01225 46/// /1505 10010 21048 39947 49952 52008=
01227 26/// ///// 11063 21107 333 60005=
01228 46/// ///// 10003 21043 39950 49957 53008=
01229 46/// /1507 11031 2////=
01230 26/// /1403 11083 21112 333 60005=
01232 26/// /1504 11024 21098 39907 49988 53004 333 60005=
01233 46/// /1902 11103 21124=
01234 46/// /2105 11119 21134=
01237 26/// /1409 11008 21070 39942 49958 53005 333 60005=
01238 41470 50601 11118 2//// 38838 49967 52007 70222 82642=
01239 26/// /2401 11130 21140 333 60005=
01240 46/// /1511 11002 21057 39936 49956 53005=
01241 41781 41409 11014 21074 39956 49967 53006 70300 81072=
01242 46/// ///// 11039 21096=
01245 26/// /2603 11055 21121 39264 49982 53004 333 60005=
01250 46/// ///// 11245 21274=
01253 26/// /1901 11092 21123 333 60005=
01254 26/// /1401 11145 21159 333 60005=
01259 46/// /1208 11024 21085 39944 49967 53005=
01265 26/// /0101 11191 21209 39422 40047 52005 333 60005=
01270 46/// ///// 11059 21109=
01271 27/84 00804 11056 21112 39963 49985 52006 700// 333 60005=
01272 46/// ///// 11050 21095=
01273 46/// /1201 11072 21119 39788 49990 52006=
01277 46/// /0903 11065 21113=
01281 46/// /0804 11075 21115 39838 40019 53005=
01282 46/// /1105 11034 21086 39975 49981 53004=
01287 46/// ///// 11100 21107=
01288 46/// /1901 11210 21229 39245 40053 53006=
01290 46/// /0906 11049 21097 39991 49994 53005=
01291 26/// /3001 11115 21136 333 60005=
01293 46/// /1703 11073 21113 39781 49996 53005=
01304 46/// /1412 10025 20007 39908 49939 55004=
01307 46/// /1609 10007 21003 39929 49952 53004=
01308 26/// ///// 10004 21004 333 69945=
01310 46/// /1207 10022 21014 39936 49950 55003=
01311 47484 81505 10010 20000 39900 49963 54000 724//=
01314 26/// /0601 11001 21021 333 69915=
01315 26/// /0602 11011 21029 333 69925=
01317 21585 81605 10015 21004 39919 49963 54001 72682 8786/ 333 69925=
01319 26/// ///// 10006 21010 333 69935=
01320 46/// /3001 10012 21040 39884 49957 54001=
01321 26/// /1501 11015 21069 39707 49962 52002 333 60005=
01323 46/// /0301 11007 21043 39573 49961 54001=
01326 26/// ///// 11008 21013 333 69915=
01327 26/// /1201 11027 21033 39420 49975 53002 333 69945=
01332 26/// /3401 11027 21031 333 60005=
01336 26/// ///// 11027 21036 333 60005=
01337 46/// /0702 11018 21036 39914 49981 55001=
01338 46/// /0403 11004 21034 39919 49986 53004=
01340 46/// /2101 11042 21094 39109 49988 53004=
01342 26/// ///// 10008 21010 333 69915=
01344 26/// ///// 11032 21070 333 60005=
01345 26/// /1702 11062 21082 333 69935=
01346 26/// /1005 11071 21099 333 60005=
01347 46/// /0702 11058 21058 39382 49992 52004=
01350 26/// /1305 11087 21104 38571 49995 53005 333 69915=
01352 46/// /0000 11094 21102=
01355 26/// ///// 11021 21065 39984 49989 53003 333 60005=
01357 46/// /1201 11100 21112 39046 40028 53007=
01358 46/// ///// 11093 21109 39278 40025 52007=
01359 46/// /0000 11086 21102 39081 40020 53004=
01361 26/// /0704 11107 21134 38951 40011 53004 333 60005=
01362 46/// /1502 11142 21151 49998 52006=
01363 46/// /0602 11058 21078 39044 40002 53004=
01364 26/// /1003 11104 21118 38867 40021 53007 333 60005=
01365 26/// /2001 11099 21113 333 60005=
01366 26/// /1604 11113 21128 38347 40000 53005 333 60005=
01367 46/// /0000 11085 21101 39572 40031 53008=
01368 46/// /0000 11092 21101 39027 40027 52008=
01370 26/// /1901 11120 21137 38896 40027 53009 333 60005=
01371 26/// ///// 11075 21086 333 60005=
01373 21430 81101 11065 21086 39816 40028 52006 77072 886// 333 60005=
01374 26/// /1401 11068 21074 333 60005=
01375 46/// /1606 11100 21112=
01376 46/// /1101 11053 2////=
01378 46/// /1302 11046 21061 39724 40022 53010=
01380 46/// /1402 11093 21098=
01381 26/// ///// 11058 21073 333 60005=
01382 26/// ///// 11042 21061 333 60005=
01383 46/// ///// 11047 21052 39705 40026 52006=
01384 41150 80000 11039 21041 52005 77072 885//=
01385 26/// /1001 11042 2//// 39755 40033 53008 333 60005=
01386 26/// ///// 11030 21047 333 60005=
01387 46/// ///// 11084 21102=
01389 26/// /1503 11051 21061 39718 40036 52006 333 69915=
01392 46/// /1001 11031 21040 39805 40035 53006=
01397 46/// /1502 11049 21056 39584 40030 52007=
01400 41598 72607 10036 20003 49981 55003 78182 8596/ 22200 06073 10703 70017=
01403 21475 71611 10022 20007 39896 49965 55001 70282 86578 333 60005=
01406 46/// /1508 10012 20002 39937 49957 51004=
01408 46/// /1506 10013 20007 39937 49969 54000=
01411 46/// /1606 10013 21005 39947 49975 53002=
01412 26/// /1409 10010 20002 39945 49976 56003 333 60005=
01413 26/// /1603 10010 21013 333 60005=
01414 46/// /1507 10018 2////=
01415 27/84 /1405 10008 21017 39965 49976 55003 700// 333 60005=
01416 26/// ///// 10016 21014 333 69955=
01417 26/// ///// 10006 21001 333 60015=
01418 26/// ///// 10019 2//// 333 60005=
01419 26/// /3101 11006 21046 333 60005=
01424 26/// ///// 11005 21012 39984 49987 55000 333 69955=
01425 26/// /3401 11003 21007 39910 49992 57001 333 69925=
01426 46/// /1009 10014 2////=
01427 26/// /0905 10006 20002 39970 49987 58001 333 69935=
01429 26/// ///// 11060 21072 333 69915=
01430 26/// ///// 10006 20006 333 69915=
01431 26/// /1702 11024 21050 39321 49991 52001 333 69915=
01434 46/// /0802 11062 21104 39015 49982 54001=
01435 26/63 /1204 11070 2//// 38822 49972 52002 333 69925=
01436 46/// /0704 10010 20003=
01441 46/// /1904 11048 21067 38986 49981 55000=
01442 26/// /0601 11016 21023 39744 40005 57001 333 60005=
01444 26/// /0000 11032 21042 333 69945=
01448 46/// /0000 10007 21002 39994 40004 53001=
01449 26/// /0000 11020 21033 333 69925=
01450 26/// /1703 11069 21077 38845 40008 52004 333 69925=
01452 26/// /0403 10000 21007 39982 40004 54001 333 60005=
01453 26/// /0501 11020 21029 333 69915=
01455 26/// /0000 11026 21035 39698 40013 54000 333 60005=
01460 46/// /1002 11011 2////=
01462 26/// /0301 11018 21025 333 69935=
01463 26/// ///// 11022 21032 333 60005=
01464 26/// /0401 11001 21014 333 60005=
01465 46/// /0402 10000 21002 39996 40010 52003=
01466 46/// /0000 11025 21029 39896 40031 52006=
01467 46/// /0202 11007 21022 30009 40015 52005=
01468 46/// /1102 11027 21034=
01471 46/// /2401 11054 21066=
01473 46/// /0000 11043 21053 39811 40024 52003=
01477 26/// /0000 11032 21037 333 60005=
01478 46/// /1504 10008 2////=
01480 26/// /0000 11022 21031 333 69915=
01481 26/// /0901 11009 21016 39992 40025 53003 333 60025=
01482 46/// /1611 10017 21015 30006 40016 54000=
01484 46/// /1302 11024 21028 39874 40032 52006=
01486 26/// ///// 11032 21041 333 60005=
01488 26/// /2801 11040 21051 333 60005=
01489 26/// ///// 11048 2//// 333 60005=
01490 26/// /1303 11050 21058 333 60005=
01492 21370 80902 11018 21035 39907 40028 52005 77072 886// 333 60005=
01494 27561 80802 11016 21025 39962 40028 53005 700// 333 60005=
01495 46/// /1304 10001 21020 30011 40024 52003=
02464 45/83 /0401 11025 21061 30041 40059 57015 8//// 333 82/56 83/58=
02500 25681 81405 11003 2//// 39981 40024 53006 333 60005 88/46 91005 90710 91107=
02513 25/83 /0902 10000 21045 30031 40035 53009 8/000 333 60005 91002 90710 91104=
02615 25383 72003 10026 20013 30034 40038 53006 333 60005 81/09 82/17 87/35 91004 90710 91105=
02635 25/67 /1901 10022 20008 8/000 333 60005 91002 90710 91104=
02705 46/// ///// 11146 21163 39469 40099 52014 91500 555 787//=
02714 47981 01102 11143 21158 39948 40101 52019 785// 91500 555 789// 0/303=
02717 46/// /1402 11198 21214 91500 555 787// 0/203=
02719 46/// /1502 11194 21209 91500 555 61193 788// 0/603=
02721 47572 71503 11104 21116 30066 40075 52018 77170 87/// 91500 555 791// 0/204=
02722 46/// ///// 11145 21162 91500 555 787//=
02725 46/// /1501 11142 21155 91500 555 790// 0/301=
02726 47536 80201 11212 21232 39598 40100 52007 771// 88/// 91500 555 784// 80830 0/402=
02727 46/// /3603 11053 21059 39971 40075 52014 91500 555 61053 796// 0/103=
02732 46/// /0601 11074 21085 39983 40091 51014 91500 555 792// 0/502=
02733 46/// /1002 11028 21043 30026 40086 52009 91500 555 790// 0/604=
02734 46/// /1302 11034 21040 39997 40094 52010 91500 555 796// 0/103=
02735 46/// /1302 11085 21095 91500 555 792// 0/002=
02736 46/// /1302 11034 21040 39947 40088 52014 91500 555 796// 0/203=
02737 46/// /1602 11175 21194 39974 40087 52019 91500 555 61175 785// 0/503=
02738 47560 21302 11126 21136 39890 40091 52016 771// 82/// 91500 555 61125 792// 80840 0/203=
02739 47471 71701 11148 21168 39900 40114 52018 785// 87/// 91500 555 784// 0/101=
02741 47677 70000 11031 21048 30050 40067 52017 70000 85/// 91500=
02745 46/// /0000 11233 21257 39835 40129 52018 91500 555 780// 0/601=
02751 47562 11005 11083 21093 30065 40071 52019 70010 81/// 91500 555 792// 0/306=
02752 46/// /1205 11075 21087 30044 40072 91500 555 791//=
02753 47467 50802 11093 21097 39917 40079 52019 70000 85/// 91500 555 797// 80390 0/002=
02754 47260 80102 11072 21083 39966 40075 52015 77170 88/// 91500=
02755 47599 11102 11194 21210 39987 40092 52018 70082 81/// 91500=
02757 47561 80303 11019 21029 30031 40061 52013 70000 88/// 91500 555 793// 0/003=
02759 47358 71003 11018 21019 30039 40068 52012 71087 85/// 91500 555 61018 799// 0/003=
02761 47960 01204 11067 21076 30034 40070 52019 70000 91500 555 794// 0/005=
02763 47764 8//// 11075 21082 39969 40078 51017 785// 88/// 91500 555 794//=
02765 46/// /0102 11065 21070 91500 555 796// 0/203=
02766 46/// /1301 11046 21046 39812 40109 52018 91500 555 700// 0/002=
02769 47161 71302 11098 21107 39953 40077 52021 78587 87/// 91500=
02772 46/// /1203 11037 21044 39989 40091 52014 91500 555 795// 0/507=
02773 47464 70802 11038 21053 30056 40068 52018 70087 87/// 91500=
02777 47660 83601 11073 21076 39914 40071 52014 71010 88/// 91500 555 798// 81270 0/603=
02778 47257 8//// 11034 21041 39993 40093 52011 74084 88/// 91500 555 795//=
02780 46/// /1103 11085 21099 30068 40071 52019 91500 555 790// 0/003=
02781 46/// /1003 11072 21086 30065 40070 52019 91500 555 790// 0/503=
02787 462// 8//// 11124 21135 39866 40088 52019 88/// 91500 555 791//=
02788 46/// /1002 11096 21107 39978 40097 52018 91500 555 792// 0/603=
02789 47444 70000 11092 21102 39890 40105 52017 76476 87/// 91500=
02790 47981 01202 11031 21049 30036 40067 52017 70000 91500=
02791 46/// /0000 11090 21103 91500 555 790// 0/501=
02793 46/// /1202 11034 21040 39997 40098 52015 91500 555 795// 0/606=
02795 47460 70203 11011 21019 30056 40069 52012 70052 87/// 91500 222// 00009 555 61014 794// 80410 0/603=
02796 46/// /0000 11049 21055 91500 555 795// 0/302=
02799 47460 80701 11104 21105 39860 40116 52018 771// 88/// 91500 555 799// 80330 0/602=
02800 46/// /1406 11090 21104 30049 40079 52016 91500 555 789// 0/106=
02801 47563 81501 11181 21201 39461 40092 54001 77170 88/// 91500=
02803 46/// /1303 11127 21144 30023 40087 52017 91500 555 787// 0/003=
02804 47/57 80000 11170 21189 785// 91500 555 61170 785// 0/201=
02805 47666 71602 11162 21182 39936 40080 52004 78587 85/// 91500=
02807 47558 82202 11199 21222 39902 40100 771// 88/// 91500=
02813 46/// /0802 11171 21190 39960 40104 52015 91500 555 785// 0/002=
02814 47426 70101 11253 21277 39835 40122 52016 78587 87/// 91500=
02815 46/// /1101 11191 21207 91500 555 787// 0/601=
02816 47982 01202 11188 21201 39775 40108 52018 77170 91500 555 790// 0/202=
02817 46/// /1908 11145 21161 39527 40094 52015 91500 555 61145 788// 0/509=
02818 46/// /1804 11147 21156 39765 40100 52016 91500 555 61146 792// 0/104=
02820 46/// /1302 11134 21149 39127 40088 52009 91500 555 789// 0/602=
02821 46/// /1903 11132 21146 39368 40080 52009 91500 555 789// 0/003=
02823 47640 80000 11178 21200 39779 40095 52010 771// 88///=
02824 466// 81302 11155 21171 39636 40093 52010 88/// 91500 555 787// 0/102=
02825 46/// /2301 11121 21140 30037 40069 53004 91500 555 786// 0/301=
02827 46/// ///// 11151 21165 91500 555 789//=
02833 46/// /1403 11098 21112 30033 40074 52018 91500 555 790// 0/403=
02834 47180 71204 11117 21130 39834 40103 52018 785// 87/// 91500 555 790// 80060 0/004=
02835 47661 81801 11130 21141 39933 40094 53015 771// 88/// 91500=
02836 47981 01502 11220 21249 39868 40112 52017 72482 91500=
02844 47463 71502 11146 21164 39978 40091 52017 771// 81/// 91500=
02845 47/58 ///// 11164 21183 771// 91500=
02847 47644 71001 11148 21169 39991 40100 52015 77187 87/// 91500 555 784// 81050 0/202=
02849 47983 01402 11168 21183 39822 40116 52016 78582 91500=
02851 47974 01202 11149 21157 30076 40092 53017 724// 91500=
02862 47899 11104 11145 21161 30088 40094 52018 70087 81/// 91500=
02863 46/// /1206 11093 21108 30062 40084 53016 91500=
02866 47557 80901 11144 21160 39948 40109 52017 77170 83/// 91500=
02868 46/// /1309 11164 21182 91500 555 786// 0/509=
02869 47465 80802 11163 21182 39774 40123 771// 82/// 91500 555 785// 80579 0/003=
02872 47/70 ///// 11117 21136 30083 40089 52018 77170 91500 555 785//=
02873 47683 11206 11137 21153 30078 40090 52018 70020 81/// 91500=
02874 46/// /1102 11151 21162 91500 555 791// 0/303=
02876 47/99 /1205 11119 21139 30087 40093 52016 72487 91500 555 785// 0/005=
02889 47269 10000 11182 21199 39819 40117 52019 78587 81/// 91500=
02897 47280 60000 11171 21185 39912 40108 785// 86/// 91500=
02907 46/// /1604 11089 21104 30075 40081 52018 91500=
02913 47645 81402 11107 21116 30023 40076 52018 771// 88///=
02915 47563 80802 11097 21107 39922 40092 52018 77170 88/// 91500=
02917 47360 80000 11098 21114 39971 40100 777// 88/// 91500=
02920 46/// ///// 11096 21112 30051 40075 52018 91500=
02924 47566 81101 11089 21101 39878 40084 52017 78587 88/// 91500=
02926 47960 00901 11091 21103 30059 40072 52018 700// 91500=
02929 47257 81203 11038 21045 39944 40098 700// 88/// 91500 555 795// 80152 0/203=
02935 47769 72501 11123 21130 39909 40093 52016 70082 87/// 91500=
02937 47957 00902 11096 21105 30023 40074 52018 785// 91500 555 61096 793// 0/203=
02939 47150 81304 11037 21042 39911 40109 52016 78587 88/// 91500=
02942 41457 60702 11095 21106 39919 40076 52018 71022 86500 555 61095 793//=
02943 46/// /0602 11076 21086 39953 40079 51017 91500 555 792// 0/404=
02944 47760 70000 11079 21090 39925 40078 785// 87/// 91500=
02945 47/60 /0000 11090 21099 39898 40085 785// 555 793// 0/402=
02947 47250 80501 11047 21052 39955 40083 52014 741// 88/// 91500=
02948 47260 80903 11037 21045 39972 40093 700// 88/// 91500 555 794// 80152 0/404=
02955 47363 71301 11074 21089 39982 40091 52016 77887 87/// 91500=
02957 47850 81202 11095 21109 30059 40071 52017 771// 88/// 91500=
02958 47148 81002 11031 21038 39948 40082 771// 88/// 91500=
02959 47150 81402 11031 21037 39951 40083 52011 771// 88/// 91500 555 796// 0/604=
02963 47041 30702 11107 21117 39941 40076 52018 71010 83///=
02964 47982 01403 11028 21043 30060 40067 52018 70000 91500=
02965 47137 80000 11037 21038 39973 40073 52014 72274 88/// 91500=
02966 47250 81203 11020 21026 39948 40073 700// 88/// 91500 555 61022 796// 0/003=
02967 47362 81104 11009 21027 30062 40069 52009 70010 87/// 91500=
02974 41458 80102 11039 21043 30001 40069 52012 71022 8657/=
02976 47360 81103 11007 21021 30056 40073 52009 700// 88/// 91500=
02978 47459 73601 11021 21032 30060 40065 52012 71021 85/// 91500=
02979 46/// /0000 11006 21076 30042 40062 52016 91500=
02980 47999 80302 11008 21071 30052 40064 52016 70000 88/// 91500=
02981 47583 10303 11027 21057 30052 40062 52015 700// 81/// 91500=
02982 46/// /0504 11020 21029 30051 40062 52013 91500=
02984 47459 80404 11015 21024 30048 40061 52012 71087 88/// 91500=
02987 46/// /1004 10000 21013 30035 40065 52010 91500=
02991 46/// /0704 11004 21014 30034 40068 52012 91500=
02992 46/// /1203 11001 21007 30066 40070 52011 91500=
02993 46/// /3603 11002 21050 30043 40061 52017 91500=
03002 45983 /2310 11013 21020 39906 49925 53001 333 8//99=
03005 41425 72206 11001 21013 39827 49929 55000 78581 879// 333 43005 55300 20064 86911=
03008 45/79 /2413 10027 21003 39857 49931 56001 91450=
03010 46/// /2818 10020 20000 49929 53001=
03017 47482 /2212 10016 20009 39903 49935 56004 723// 333 4/008 55301 20201 83/13 83/56=
03023 47672 /3116 10047 21007 39954 49959 52003 723// 333 81/41 90710 91126=
03026 47558 /2307 10009 20004 39922 49940 56001 724// 333 4/005 55301 20183 83/21 83/61=
03031 47580 /2506 10004 21018 39629 49958 53001 785// 333 55300 20369 81/25 86/33 85/44=
03034 47480 /2815 10027 20002 39934 49948 56006 723// 333 84/18 90710 91125 91025=
03039 46/// /2628 11035 21035 333 90710 91134=
03044 47584 /1711 11006 21011 39843 49943 57003 724// 333 4/012 55300 20127 81/22=
03047 45983 /3101 11019 21025 39676 49984 55001 333 4/037 553// 20048 8//99=
03062 47583 /2803 10016 21002 39949 49954 53002 781// 333 553// 20384 83/23 85/56=
03063 45984 /2004 11010 21028 39685 49966 51003 333 4/015 55302 20188 8//99=
03065 46/// /1906 11068 21074=
03066 45989 /2309 10018 21016 39950 49956 55000 333 55306 20350 8//99=
03068 42484 52513 10019 21020 39945 49953 57001 82942 333 41998 81918 84075 92776=
03072 46/// /2721 11049 21052 333 90710 91135=
03075 45784 /2207 10003 21015 39896 49941 56005 333 4/002 81/56=
03080 45883 /2512 10021 21032 39790 49962 56002 333 4/001 81/57 83/61=
03088 45984 /2512 10010 21009 39801 49966 56004 333 553// 20431 8//99=
03091 45984 /2005 10026 21031 39879 49959 56004 333 55308 20350 81/66=
03100 47678 /2810 10041 20007 39960 49976 53003 723// 333 55302 20326 83/48 85/65=
03105 47447 /2822 10021 20003 39978 49995 55000 782// 333 83/18 85/50 90710 91134=
03111 46370 /2425 10027 20019 39980 49992 58007 333 82/09 85/58 90710 91137=
03132 45482 /2517 10038 20014 39999 40013 58009 333 81/16 90710 91128=
03134 45767 /2304 10018 20008 39912 49985 56009 333 4/003 55300 20166 87/56=
03136 45469 /2418 10041 20016 39961 49994 57002 333 55300 20113 85/16 83/29 90710 91128=
03144 47684 /2309 10013 20004 39935 49978 58006 724// 333 4/003 553// 20275 81/39=
03148 46/// /2710 11022 21022=
03153 45482 /2524 10031 20009 39870 40008 58007 333 55301 20352 87/15 90710 91132=
03155 46383 /2410 10006 20006 39695 49996 56005 333 81/06 86/11=
03158 47484 /2313 10011 21001 39849 49987 56007 724// 333 55300 20184 85/10=
03162 41472 72313 10012 21010 39718 40007 56007 72682 878// 333 48028 55300 20348 81710 86816=
03166 45684 /2209 10017 21005 39914 49985 56005 333 55304 20382 82/48=
03171 45984 /2712 10021 20001 39963 49975 55003 333 55310 20554 8//99=
03204 42582 32618 10050 20003 30016 40036 57008 82132 333 55304 20619 82820 83072 90710 91126=
03210 46481 /2722 10038 20005 39872 40024 58006 333 83/16 90710 91128=
03212 45581 /2609 10037 20000 39926 40026 57003 333 83/21 85/50=
03214 45572 /2618 10051 20009 30018 40037 55002 333 83/23 90710 91128=
03220 46984 ///// 10037 20006 39977 40012 58007 333 8//99=
03224 45376 /2514 10009 20001 39660 40009 58001 333 4/009 86/08 84/32 90710 91125=
03225 46681 /2610 10018 21023 39718 40027 55000 333 4/010 553// 20481 85/31=
03226 47581 /3004 10018 20000 39745 40023 56004 741// 333 4/001 83/29 86/42=
03227 46/// /2412 11029 21029 333 90710 91130 91025=
03230 46582 /2409 10012 21011 39741 40000 56008 333 4/008 81/24=
03238 45584 /2715 10025 21010 39825 49999 55001 333 4/004 82/20 90710 91128 91028=
03257 45981 /2307 10040 21015 39982 40022 55002 333 4/002 55310 20848 87/67=
03265 45582 /2511 10046 21003 39997 40028 58003 333 85/26=
03266 41580 52408 10045 20010 30012 40029 56006 70281 82802 333 82820 84070=
03275 46582 /2711 10024 21011 39823 40017 56003 333 4/003 82/27=
03281 46/// /2209 10014 21008=
03292 464// /2508 10035 20011 30011 40029 55007 333 85/17 83/36=
03301 46569 /2712 10053 20013 39990 40063 57007 333 82/23 84/44=
03302 42584 52517 10058 20000 30050 40064 58003 85401 333 55300 20336 83826 83645 90710 91127=
03305 47569 /2522 10031 21001 39801 40066 57007 781// 333 81/23 85/29 90710 91136=
03313 46583 /2511 10041 21001 39964 40059 57005 333 81/26 90710 91126=
03316 47562 /2617 10048 20021 30040 40051 55004 723// 333 85/21 84/49 90710 91131=
03318 46/// /2723 10050 20018 333 90710 91130=
03321 464// /2613 10044 20012 3//// 4//// 5//// 333 55305 20409 82/17 90710 91127 91026=
03330 45582 /2811 10030 21007 39692 40056 56007 333 4/001 84/22=
03344 47478 /2512 10015 21003 39714 40036 56007 781// 333 4/003 84/15 90710 91126 91022=
03346 46/// /2619 10023 20002 333 90710 91132=
03351 45981 /2714 10051 20002 30006 40049 56008 333 55308 20544 8//99=
03354 45682 /2611 10047 20000 39913 40057 56006 333 55301 20312 84/30 87/36 91022=
03373 46683 /2615 10047 20004 39975 40045 56009 333 84/33 90710 91125=
03377 42581 62413 10051 21011 39964 40049 56011 82801 333 55307 20554 81828 85075=
03379 42584 72619 10049 21008 39975 40052 56007 83832 333 82828 86070 90710 91126=
03382 47582 /2513 10034 20012 30022 40030 56010 723// 333 55302 20362 81/23 90710 91126=
03385 46681 /2011 10046 20013 30033 40043 57009 333 86/38 83/63=
03391 42681 72409 10049 20006 30045 40052 56007 83132 333 83832 83366 86072 90710 91126=
03392 46680 /2311 10045 20016 30049 40053 57009 333 82/30 87/39=
03405 46582 /2622 10048 20014 39965 40081 56002 333 55302 20480 82/21 86/25 90710 91134=
03409 46/// /2611 10033 20006 39867 40069 58005 333 55300 2////=
03410 46556 /2414 10020 21002 39631 40070 58003 333 55300 20249 81/20 86/45=
03414 42580 12617 10050 21004 39975 40063 55001 81863 333 55310 20759 81820 90710 91126=
03462 45681 /2412 10051 20004 39967 40056 56008 333 55310 20717 82/40=
03469 45681 /2612 10051 20008 30055 40059 56009 333 553// 20312 85/31=
03482 42670 72312 10047 20012 30039 40065 58008 83572 333 83640 86362=
03488 45981 /2211 10035 20008 30032 40058 57004 333 8//99=
03502 45569 /2722 10054 20004 39927 40091 58004 333 55301 20362 83/22 86/60 90710 91131=
03503 45579 /2709 10056 20013 30009 40087 58004 333 81/23 83/30=
03507 47582 /2709 10034 20001 39716 40091 57005 723// 333 81/23 83/29 86/50 91019=
03520 46980 /2811 10057 20002 39957 40078 58001 333 55309 20671 8//99 90710 91128=
03522 47582 /2714 10060 20005 39990 40083 58004 723// 333 82/28=
03529 45983 /2611 10060 20007 30039 40082 56006 333 8//99=
03535 45683 /2511 10057 21003 39947 40065 56008 333 553// 20563 81/34 83/39 90710 91126 91021=
03544 45682 /2713 10052 20002 39938 40069 56009 333 553// 20584 81/35 83/44=
03560 45683 /2411 10050 21002 39967 40072 56007 333 553// 20521 82/47=
03590 42682 72711 10041 21002 39964 40075 56009 875/2 333 55305 20558 87639=
03604 46681 /2814 10063 20004 30051 40105 57003 333 81/40 83/57 90710 91125=
03605 46778 /2823 10063 20023 30093 40102 57004 333 87/50 90710 91132=
03609 46/// /2617 10068 20019 30053 40106 57008 333 90710 91136=
03628 45680 /2612 10068 20014 30024 40097 56007 333 55309 20648 83/34=
03647 46681 /2615 10047 21006 39821 40077 56006 333 553// 20496 82/32 90710 91126=
03649 42682 42706 10063 21021 39982 40082 56009 82131 333 55304 2//// 82835=
03658 42682 62412 10065 21019 30018 40088 56009 84101 333 84835 83068=
03660 45681 /2808 10044 21012 39836 40086 57008 333 83/35=
03672 42680 42612 10067 21010 30047 40088 56010 84130 333 84837=
03684 45681 /2713 10050 20000 39969 40076 56012 333 81/33=
03693 45682 /2708 10066 21002 30083 40085 56010 333 55307 2//// 87/35=
03707 47781 /2915 10069 20017 30106 40113 58004 723// 333 82/50=
03710 46473 /2707 10029 20017 39687 40112 57001 333 55305 20571 82/11 90710 91125=
03716 47768 /2714 10051 20019 30039 40100 55002 723// 333 55303 20413 82/50 90710 91130=
03740 466// /2612 10059 20006 39915 40093 56007 333 55308 20859 83/30 86/63=
03743 42682 42512 10057 20001 39936 40098 56010 83402 333 82830=
03746 41675 52615 10065 20002 39946 40099 55008 71481 84803 333 82830=
03749 41675 42615 10060 20002 39989 40100 56008 70280 84800 333 84832=
03761 41582 72515 10055 20006 39950 40095 56010 78081 85902 333 55306 20603 83922 87075 90710 91131=
03768 46580 /2513 10061 20005 30016 40096 56009 333 83/29 83/44=
03769 45680 /2710 10059 21004 30014 40096 55008 333 55306 20421 83/38=
03770 46/// ///// 10066 21001=
03772 45976 /2615 10064 21002 30059 40090 56010 333 55308 20560 8//99=
03781 45684 /2614 10053 21011 39886 40094 55006 333 553// 20755 82/36=
03784 46/// /2514 10066 21001 30080 40084 56010 333 90710 91125=
03796 46/// /2510 10056 21005 39949 40092 57009=
03797 45682 /2409 10060 20005 30029 40089 56009 333 55306 20536 85/41=
03803 47676 /2820 10082 20034 30109 40148 57006 757// 333 83/34 90710 91132=
03808 41575 72910 10067 20036 30031 40138 57003 72582 83832 333 55300 20480 82824 84358 87075=
03809 41468 72716 10063 20043 30047 40141 56002 78082 86931 333 82914 83820 87080 90710 91126=
03823 47578 /2813 10059 20028 39880 40125 58005 723// 333 553// 20528 81/23 85/56 90710 91125=
03827 45671 /2712 10068 20031 30069 40131 55005 333 81/45 86/67=
03840 47482 /2609 10034 20007 39805 40115 56003 723// 333 82/13=
03853 41675 32614 10065 20023 30085 40109 55006 72586 83870 333 55307 20658 83830=
03857 45780 /2625 10073 20031 30052 40116 55006 333 83/50 85/59 90710 91132=
03862 47483 /2506 10041 20026 30096 40108 56008 723// 333 55301 20208 81/11 90710 91128=
03866 46/// /2622 10079 20030 30084 40108 56006 333 90710 91128=
03872 45678 /2817 10076 20009 30096 40101 56012 333 553// 20865 82/47 90710 91126=
03876 46/// /2713 10073 20004 30098 40101 56011=
03882 45981 /2709 10069 20003 30035 40098 56009 333 55309 20648 83/65=
03894 41483 72612 10066 20043 40143 55005 72581 85902 333 81917 84825 87070 90710 91128=
03895 47560 /2821 10056 20030 30045 40150 55001 783// 333 55304 20661 82/20 84/56 90710 91132 91032=
03901 47450 /2308 10022 20012 39948 40037 56005 781// 333 4/002 55300 20102 83/14 86/27=
03904 47980 /2511 10028 20007 39963 40024 55008 723// 333 4/002 87/61 90710 91126=
03907 47457 /2717 10023 20011 30007 40014 53001 762// 333 55300 20211 84/10 85/22 90710 91128=
03911 47363 /2510 10009 20003 39747 40024 56011 781// 333 4/022 82/07 86/19=
03915 47581 /2410 10023 20010 39935 40014 55011 782// 333 84/27 84/35=
03916 47218 /3006 10002 20000 39817 40010 57005 772// 333 4/011 553// 20112 87/03 90710 91125=
03917 45364 /2214 10026 20013 39945 40023 58009 333 55305 20569 81/07 85/43=
03923 47982 /2511 10015 20005 39837 40036 58007 723// 333 4/009 85/58=
03951 47/70 /2810 10078 20021 30093 40120 58005 7015/=
03952 45681 /2805 10062 20016 30064 40114 55004 83/// 333 83/49=
03953 47570 /2908 10074 20029 30086 40116 58007 7018/ 84/// 333 84/33=
03955 42482 62806 10052 20017 39913 40112 57005 82963 333 81917 83357 85066=
03956 45/82 /2506 10049 20005 30018 40096 57006=
03961 47580 /2606 10040 20012 30008 40086 55004 72285 81/// 333 81/24=
03962 41370 52508 10050 20015 30068 40092 57007 72582 82330 333 81708 81918 85359=
03963 47550 /3112 10051 20026 30046 40075 53002 7828/ 87/// 333 87/28 90710 91120=
03966 47470 /2407 10044 20024 39988 40082 58004 72285 85/// 333 81/17 85/56 87/60=
03967 42480 52308 10035 20013 39953 40069 58003 83830 333 81710 83656=
03969 42470 42509 10041 20005 39960 40065 56002 84832 333 81716 83820=
03970 46/// /2605 10048 20015 39976 40061 57008=
03971 47578 /2405 10043 20012 39941 40065 55003 751// 85/// 333 81/25 83/50 85/58=
03973 41460 62506 10021 20005 39800 40058 58004 72681 869// 333 83714 84918=
03976 47566 /3008 10066 20004 30040 40052 54000 7018/ 85/// 333 85/33 90710 91120=
03978 47659 /2811 10050 20017 39990 40033 55005 71081 81/// 333 81/48 82/64=
03979 47471 /2405 10036 20015 39948 40046 57005 7238/ 85/// 333 81/14 83/44 85/58=
03980 47474 /2909 10035 20017 39983 40008 53009 7238/ 82/// 333 81/14 82/49 82/56 90710 91120=
04005 41465 80517 10006 21010 40019 53003 78572 886// 555 3/417=
04013 42689 70704 11031 21044 40001 51006 82530 555 3//06=
04018 42589 40506 11032 21064 49985 51001 81132 555 3//07 81820 84067=
04030 42988 61301 11033 21121 49984 58002 85042 555 3//03=
04053 41415 81204 11058 21066 40001 54000 77182 886// 555 3//06 88713=
04063 41/60 91401 11031 21042 49994 52003 77172 555 3//03=
04073 41/64 90509 11026 21039 49962 58008 72272 555 3//13=
04082 42688 33609 10008 21047 49952 53002 81640 555 3//09 81733 83356=
04085 42584 70211 10005 21014 49963 52009 70182 87600 555 3//14=
04097 41582 83212 10012 21005 49947 52004 72682 889// 555 3/413=
04221 45/58 /0923 11089 21193 30045 40089 57012 333 91122 91026 =
04231 45/84 00707 11304 21348 30015 40097 57011 =
04234 45/84 /0906 11146 21205 30065 40076 57004 =
04241 45/81 /0404 11086 21174 30020 40058 57004 =
04254 45983 20510 11089 21125 39930 40047 57007 333 81/63 82/66 =
04260 45883 70407 11038 21124 39973 40021 57010 333 81/56 87/60 =
04270 45983 32307 11032 21144 39955 49994 57020 333 83/66 =
04272 26/// ///// 39922 57019 333 6///7 =
04312 46/// /2507 11226 21249 30178 40221 =
04360 25784 7//// 11035 21069 30013 40084 57002 333 55300 20083 6///7 87/58 =
04361 47881 81601 11021 21093 30032 40084 57005 72488 333 88/57 =
04390 27/28 /0235 11016 21042 39898 49992 57020 76487 333 69977 91049 91154 =
06011 25/84 01602 11012 21042 39849 49918 52003 333 55308 20216 6///7=
06019 26/// /1607 10002 20002 333 55300 20068 6///7=
06030 27/56 /1104 10014 20010 30002 40018 52004 71000 333 6///7=
06031 26/// /1205 11003 21005 333 55300 20068 6///7=
06041 27465 71715 10022 20007 30015 40021 52006 70085 333 55300 20043 69907 81/11 87/47=
06049 47/34 91606 11001 21002 39911 40022 52005 78084 333 89/02=
06052 27471 71807 10020 20012 30004 40008 52004 72386 333 69907 83/11 85/29 87/57=
06060 25260 71603 10010 20006 39950 40016 52004 333 6///7 87/04=
06069 46/// ///// 39945 52003=
06070 27/57 /1403 10021 20021 30000 40031 52006 72388 333 69907=
06079 25484 11709 10018 21008 30024 40029 52008 333 55300 20090 6///7 81/14=
06081 46/// /2009 10026 20017 39994 40016 57003=
06096 47469 72006 10022 20021 30012 40023 52004 74086 333 55300 20122 81/14 83/24 85/28 87/43=
06120 22380 72004 10026 20018 30006 40032 57006 87800 333 6///7 81708 83710 87635=
06123 45/81 /2210 10029 20018 30027 40031 52006 333 55307 20140=
06124 45/80 /2207 10020 20005 30027 40036 52006=
06136 26/// /2206 10024 20013 333 55300 20083 6///7=
06138 46/// /2318 10023 20020 30036 40041 52008=
06141 27272 72209 10026 20011 30029 40041 52007 70085 333 55300 20068 69917 81/06 85/08 87/10=
06147 26/61 /2208 10026 20016 30037 40043 52008 333 6///7=
06149 26/// /2210 10023 20023 30040 40046 52008 333 55300 20072 6///7=
06151 46/// /2312 10026 20020 30033 40036 52007=
06159 27/68 /1810 10025 20024 30009 40028 52005 78186 333 69927=
06168 46/// /1702 10013 20012 39984 40037 52008=
06169 27/80 /1909 10023 20016 30009 40029 52005 70085 333 69907=
06174 27/70 /1701 10017 20012 30010 40037 52006 70085 333 55302 20119 69907=
06180 27380 71603 10024 20014 30034 40041 52006 78188 333 69907 87/09 87/39=
06183 45/73 /1909 10026 20011 30019 40037 52004=
06193 25584 51702 10006 21002 30036 40048 52010 333 55301 20090 6///7 81/27 85/57=
06201 47478 72709 10050 20009 39982 40026 57001 701// 83/// 333 543// 82/19 83/24 87/69 90730 91010 91113=
06203 47476 12509 10053 20007 30036 40065 58005 701// 81/// 333 543// 81/19 90730 91011 91112=
06204 47478 82610 10050 20013 30024 40058 50000 702// 88/// 333 543// 83/15 85/17 87/20 90730 91012 91113=
06205 47475 73009 10043 20010 39965 40006 56001 72385 87/// 333 543// 84/13 86/17 87/21 90730 91011 91114=
06206 47477 52308 10046 20007 39997 40031 56001 70185 85/// 333 543// 81/18 83/31 85/45 90730 91009 91111=
06207 47480 62510 10051 20007 30002 40038 56003 721// 86/// 333 543// 83/17 84/21 85/31 90730 91012 91112=
06208 47575 32406 10045 20016 30019 40052 53005 7228/ 83/// 333 543// 81/21 83/35 90730 91007 91110=
06211 47/76 /2511 10049 20005 39995 40038 55002 700// 333 543// 90730 91013 91114=
06212 47480 72210 10053 20008 30005 40055 57003 702// 87/// 333 543// 81/16 83/21 87/56 90730 91012 91112=
06225 46/// /2509 333 91013 91113 91211 555 51113 51211=
06229 46/// /2609 333 91014 91114 91209 555 51114 51209=
06235 17567 82508 10045 20015 30057 40058 57001 60005 781// 88/// 333 543// 55/// 20334 553// 20243 81/20 83/26 85/37 90730 91011 91111=
06239 47481 72610 10052 20006 39984 40015 55000 702// 87/// 333 543// 82/19 84/22 85/40 90730 91012 91114=
06240 17581 72506 10050 20015 30075 40071 55001 69915 7238/ 87/// 333 543// 55/// 20327 553// 20353 83/23 85/31 86/42 90730 91009 91112=
06242 47465 82508 10041 20013 30049 40051 54000 72380 8//// 333 83/17 84/20 85/26 91010 91113 91210 555 51112 51210=
06248 46/// /2404 333 91006 91108 91205 555 51108 51205=
06249 45/80 /2606 10050 20017 333 91008 91111 91209 555 51110 51207 53030=
06251 17/71 /2506 10047 20020 30047 40050 52002 60005 70085 333 543// 55/// 20360 553// 20333 90730 91008 91111=
06252 46/// /2710 10046 20007 30013 40051 55001 333 543// 90730 91011 91112=
06257 46/// ///// 10054 20008 555 53040=
06258 46/// /2408 48/// 333 543// 90730 91010 91111=
06260 17581 72804 10046 20002 30072 40076 53001 60005 7818/ 87/// 333 543// 55/// 20323 553// 20283 84/23 86/27 87/31 90730 91009 91109=
06267 45580 82406 10042 20020 8//// 333 81/20 83/31 87/50 91008 91109 91207 555 51109 51207 53037=
06269 17581 32505 10046 20013 30073 40068 53001 60005 703// 83/// 333 543// 55/// 20369 553// 20265 81/30 83/65 90730 91007 91110=
06270 17477 82405 10041 20017 30054 40056 53004 60005 70285 85/// 333 543// 55/// 20322 553// 20305 81/18 84/27 85/50 90730 91007 91111=
06273 45/79 /2405 10045 20014 333 91008 91109 91206 555 51108 51205 53038=
06275 47162 82505 10020 20008 30022 40078 53002 76885 8//// 333 81/02 83/15 86/21 91008 91109 91206 555 51109 51206 53011=
06277 46/// /2405 10043 20018 333 91008 91114 91209 555 51109 51206 53039=
06278 46/// /2703 10051 20018 333 91005 91108 91206 555 51107 51205 53024=
06279 47580 82405 10046 20015 30043 40063 56002 70285 8//// 333 81/21 83/56 88/70 91007 91109 91206 555 51108 51205 53036=
06280 17481 82406 10038 20013 30052 40057 51004 60005 702// 82/// 333 543// 55/// 20335 553// 20369 82/19 88/71 90730 91007 91110=
06283 46/// /2202 10027 20010 333 91005 91111 91207 555 51111 51207 53015=
06286 46/// /2305 10039 20014 333 91007 91110 91207 555 51110 51207 53033=
06290 17475 82103 10039 20018 30031 40074 53002 60005 7228/ 87/// 333 543// 55/// 20290 553// 20230 82/15 83/18 85/22 90730 91005 91110=
06310 17567 12608 10056 20015 30073 40086 55004 60005 702// 81/// 333 543// 55/// 20417 553// 20428 81/28 90730 91009 91112=
06319 45/82 /2506 10055 20008 30088 40090 56005 333 91008 91111 91208 555 51110 51208 53046=
06320 45/71 /2608 10058 20014 30048 40075 56006 333 91010 91113 91210 555 51113 51210=
06321 45/75 /2508 10058 20013 30053 40077 56005 333 91010 91111 91209 555 51111 51209=
06323 46/// /2506 10059 20022 30084 40086 55003 333 91008 91112 91209 555 51111 51208 53046=
06330 46/// /2508 10053 20010 30061 40075 56004 333 91012 91112 91208 555 51112 51208 53035=
06340 45582 12505 10042 20014 30068 40086 55004 8//// 333 81/29 91007 91110 91207 555 51110 51207=
06343 46/// /2506 333 91008 91111 91208 555 51111 51208=
06344 17581 72606 10057 20014 30082 40076 55002 60005 703// 87/// 333 543// 55/// 20366 553// 20469 85/23 86/28 87/33 90730 91010 91111=
06348 47/80 /2505 10050 20013 30079 40078 55000 70085 333 91006 91108 91206 555 51107 51205 53023=
06350 47581 42404 10050 20012 30070 40085 55003 72385 8//// 333 81/29 84/50 91008 91111 91206 555 51111 51206 53040=
06356 464// 62307 10051 20020 30078 40079 56001 8//// 333 81/14 84/39 85/43 91010 91113 91209 555 51110 51207 53065=
06370 17580 12305 10044 20011 30059 40086 56004 60005 701// 81/// 333 543// 55/// 20450 553// 20332 81/23 90730 91007 91110=
06375 47476 82603 10046 20019 30061 40086 53001 72385 8//// 333 83/16 85/18 87/27 91005 91110 91208 555 51107 51204 53027=
06377 45680 52304 10051 20004 8//// 333 82/37 85/42 91006 91111 91207 555 51109 51206 53035=
06380 17582 72305 10046 20004 39960 40099 55000 60005 701// 87/// 333 543// 55/// 20365 553// 20332 82/24 83/30 85/35 90730 91009 91110=
06391 46/// /2303 10057 20021 333 91005 91109 91206 555 51107 51205 53054=
06400 42570 42608 10059 20008 30088 40097 55005 83801 333 82826 91111 91209=
06428 45/70 /2603 10061 21003 30056 40100 57005 333 91109 91206=
06432 45570 /2406 10052 20008 30032 40105 57005 333 81/25 91109 91207=
06456 42470 52405 10033 21004 39766 40115 55002 83801 333 83817 91109 91207=
06458 42570 12406 10050 21004 39964 40102 57005 81800 333 81825 91110 91207=
06465 42570 32404 10048 21003 30033 40098 57004 83800 333 81826 83645 91109 91206=
06479 42570 42404 10044 21006 30022 40097 55001 84400 333 83830 83650 91111 91208=
06496 45470 /2503 11001 21009 39428 40112 57003 333 81/15 86/35 91108 91205=
06601 23/// /2406 10047 20011 39757 40143 57012 333 55300 20205 60005 91122 91214=
06602 23/// /0902 10040 20023 39615 40146 57010 333 55302 20540 60005 91123 91212=
06604 23/// /2607 10060 21006 39566 40146 57005 333 55300 20266 60005 91120 91212=
06605 23/// /2420 11042 21045 38326 48432 56005 333 55300 20216 60005 91130 91220=
06606 23/// /2712 10060 21004 39629 40148 57006 333 55300 20223 60005 91122 91213=
06608 23/// /2407 11003 21023 38826 48437 57004 333 55300 20256 69915 91117 91208=
06609 23/// /2520 11055 21072 37941 48438 55005 333 55300 20205 60005 91137 91223=
06610 23/// /2408 10060 20003 39561 40147 57007 333 55300 20176 69915 91118 91211=
06612 23/// /2412 10008 21017 38957 48437 57007 333 55300 20526 69915 91121 91212=
06616 23/// /2409 10033 20009 39429 40145 57012 333 55300 20270 69915 91123 91211=
06617 23/// /2510 11002 21013 38921 48436 57008 333 55300 20450 69915 91122 91215=
06618 23/// /2310 10067 21005 39629 40153 55005 333 55302 20450 60005 91118 91211=
06619 23/// /2306 11009 21033 38752 48439 57007 333 55301 20500 60005 91118 91210=
06620 23/// /2512 10040 20002 39610 40141 55008 333 55300 20302 60005 91132 91222=
06621 23/// /2203 10048 20000 39612 40143 55007 333 55300 20198 60005 91122 91213=
06623 23/// /2509 10020 20000 39287 48428 55004 333 55300 20162 60005 91124 91215=
06624 23/// /2103 10039 20018 39636 40145 57009 333 55301 20295 60005 91121 91212=
06625 23/// /2214 10047 21004 39376 48440 57009 333 55300 20274 60005 91122 91214=
06626 23/// /2406 10046 20002 39682 40144 55011 333 55300 20220 69915 91129 91211=
06627 23/// /2503 10018 21025 38955 48449 55005 333 55300 20256 69915 91111 91205=
06628 23/// /2419 10011 21025 38929 48438 57008 333 55300 20299 60005 91130 91220=
06631 23/// /2206 10048 20001 39486 40148 57009 333 55300 20191 69935 91117 91209=
06632 23/// /2508 10058 20002 39629 40145 57009 333 55300 20234 60005 91115 91211=
06633 22570 82909 10044 20001 39676 40146 55009 333 55300 20187 69935 83621 85459 91121 91209=
06635 23/// /2510 10056 21008 39563 40144 57012 333 55300 20299 60005 91120 91214=
06636 23/// /2705 10054 20000 39569 40145 57007 333 55300 20184 69995 91116 91208=
06637 22665 62705 10049 20002 39440 40143 55008 333 55300 20295 60005 85647 91115 91210=
06638 23/// /3007 10035 21007 39267 48442 57011 333 55300 20241 60005 91116 91209=
06641 23/// /2608 10045 20021 39730 40150 57010 333 55300 20140 60005 91118 91208=
06643 23/// /2607 10061 21001 39630 40138 57011 333 55300 20346 60005 91120 91213=
06644 23/// /2503 10063 20000 39597 40140 55011 333 55301 20360 60005 91119 91209=
06645 23/// /2604 10018 20001 39412 48427 57010 333 55301 20148 69915 91119 91210=
06646 23/// /2202 10048 20013 39745 40142 57011 333 55300 20220 69915 91117 91208=
06647 23/// ///// 10047 20017 39738 40145 57011 333 55300 20205 69915=
06648 23/// /2713 10058 20004 39515 40138 57013 333 55306 20500 60005 91123 91215=
06650 23/// /2605 10067 21008 39596 40140 55011 333 55301 20468 60005 91123 91214=
06651 23/// /2107 10036 21008 39264 48437 57012 333 55300 20252 60005 91120 91212=
06655 23/// /1602 10004 21015 38931 48432 55006 333 55300 20310 69915 91109 91204=
06656 23/// /3109 1//// 2//// 39464 55010 333 60005 91120 91212=
06657 23/// /2704 10061 21003 39576 40140 55010 333 55300 20270 60005 91120 91211=
06659 23/// /1910 11075 21113 37802 48430 55006 333 55300 20346 69935 91141 91215=
06660 23/// /2506 10049 21015 39476 40141 55010 333 55300 20115 60005 91116 91209=
06664 23/// /2904 10048 20001 39606 40141 55010 333 55300 20130 60005 91112 91207=
06666 23/// /2406 10043 20022 39726 40142 57010 333 55300 20263 60005 91121 91213=
06669 43/// /23// 10014 21022 39139 48425 57009 333 55300 20176 91121 91210=
06670 21472 72904 10044 20008 39627 40143 55009 71411 8657/ 333 55300 20212 60005 81715 85636 86650 91117 91210=
06671 43/// /2307 1//// 2//// 39661 55004 333 91126 91218=
06672 21680 73102 10058 20011 39613 40140 55003 70255 333 55300 20184 60005 87635 91125 91215=
06673 23/// /2804 10056 21017 39558 40140 55009 333 55300 20209 60005 91115 91208=
06674 23/// /2506 10065 21002 39610 40140 55010 333 55300 20223 60005 91118 91212=
06675 23/// /2405 10014 20001 39071 48432 57009 333 55300 20148 69935 91114 91208=
06676 43/// /2102 1//// 2//// 3//// 5//// 333 91117 91210=
06678 23/// /2102 10049 20005 39581 40144 55009 333 55300 20119 60005 91114 91206=
06679 23/// /2602 10045 21004 39495 40140 55008 333 55300 20148 60005 91119 91210=
06680 21/01 92623 11109 21109 37408 47928 50003 74544 333 55300 20288 69925 91145 91224=
06681 23/// /2104 10022 21016 39223 48432 57003 333 55300 20104 60005 91117 91210=
06682 23/// /3601 11001 21011 39022 48434 57004 333 55300 20194 60005 91107 91204=
06683 43/// /1003 1//// 2//// 39653 57010 333 91108 91205=
06685 23/// /2003 10025 20018 39525 40151 55006 333 55300 20133 60005 91111 91205=
06686 23/// /0902 10046 20000 39552 40149 55001 333 55300 20187 60005 91119 91211=
06687 43/// /2904 1//// 2//// 39635 57006 333 91117 91214=
06688 43/// /3010 1//// 2//// 37423 47933 55002 333 55301 20497 91137 91223=
06689 23/// /2609 11008 21027 38818 48427 57009 333 55300 20241 60005 91115 91210=
06690 23/// /2503 10058 21008 39664 40144 57003 333 55300 20101 60005 91115 91210=
06693 23/// /2101 10029 20012 39403 48435 55008 333 55300 20191 60005 91110 91204=
06695 23/// /0409 11023 21047 38490 48430 57003 333 55300 20486 60005 91124 91215=
06700 21582 72211 10071 20010 39667 40161 55006 71581 8386/ 333 55300 20252 60005 81625 86359 91122 91214=
06702 23/// /2627 11044 21047 38257 48442 57008 333 55300 20158 69935 91134 91227=
06704 23/// /2308 10041 21009 39344 48448 55006 333 55300 20277 60005 91120 91212=
06705 23/// /2310 10063 21005 39606 40156 55006 333 55300 20245 60005 91120 91213=
06706 43/// /2312 1//// 2//// 3//// 5//// 333 91124 91217=
06708 23/// /2513 10033 21015 39179 48448 57006 333 55300 20281 60005 91122 91213=
06709 43/// /1401 10078 20016 39706 40156 55005 333 91108 91206=
06711 23/// /2705 10067 20002 39608 40154 57005 333 55300 20216 60005 91116 91209=
06712 22875 71602 10075 20023 39693 40151 57008 333 55300 60005 87657 91106 91204=
06714 43/// /2612 1//// 2//// 36988 57007 333 553// 20144 91135 91216=
06715 23/// /2803 10065 20021 39576 40153 55006 333 55300 20295 60005 91122 91214=
06717 23/// /1204 11093 21103 37439 47956 55004 333 55300 20536 69915 91119 91211=
06720 23/// /2510 10076 21014 39565 40139 55003 333 55302 20450 60005 91123 91216=
06722 23/// /3406 11033 21076 38094 48439 55004 333 55300 20475 60005 91117 91206=
06724 23/// /2609 11006 21072 38517 48440 55002 333 55301 20547 60005 91119 91210=
06725 23/// /2003 11016 21054 38391 48436 55001 333 55301 20536 60005 91112 91206=
06727 23/// /2610 10058 21027 39371 48432 55001 333 55300 20335 60005 91129 91217=
06728 23/// ///// 11002 21146 38315 48429 55003 333 55300 20238 60005=
06730 41/90 93520 11184 21198 36433 47940 55002 77074 333 55300 20356 91148 91229=
06731 23/// /0602 10058 20003 39465 40143 57010 333 55300 20302 60005 91111 91207=
06733 23/// /2508 10035 21013 39184 48445 57005 333 55300 20256 60005 91113 91208=
06734 23/// /2105 10041 20019 39455 40147 55008 333 55300 20252 60005 91111 91206=
06735 23/// /1911 11003 21064 38624 48444 53000 333 55300 20223 60005 91121 91212=
06739 43/// /2717 1//// 2//// 37041 47940 57004 333 553// 20547 91142 91224=
06740 43/// /2817 11141 21143 36857 47937 55002 333 55300 20202 91142 91226=
06744 23/// /3310 11059 21075 37949 48433 55004 333 55300 20616 69945 91124 91217=
06745 23/// /0405 11003 21060 38583 48425 55004 333 55300 20234 60005 91110 91206=
06747 43/// /3107 1//// 2//// 37058 47950 5/001=
06748 23/// /2207 11004 21125 38271 48421 55008 333 55300 20443 60005 91126 91215=
06749 43/// /3118 11133 21211 36831 47943 52001 333 55308 20904 91143 91228=
06750 23/// /3522 11079 21132 37615 48419 55004 333 55300 20619 60005 91135 91224=
06751 23/// /1703 11041 21112 38004 48419 55005 333 55300 20428 69915 91113 91204=
06752 23/// /3506 10092 21037 39604 40103 55010 333 55300 20288 60005 91116 91209=
06753 23/// /2903 10015 21013 38969 48422 53001 333 55300 20349 60005 91113 91210=
06754 43/// /3308 11065 21114 37714 48424 55002 333 55305 20601 91125 91217=
06756 23/// /2702 10051 21028 39433 40118 53003 333 55300 20220 60005 91125 91215=
06758 23/// /3402 10083 21037 39714 40101 55000 333 55308 20670 60005 91108 91205=
06759 23/// /3407 11013 21120 38242 48416 53002 333 55301 20259 60005 91128 91212=
06760 22884 31004 10120 21044 39655 40094 53001 83500 333 55308 20590 60005 83657 91114 91206=
06762 23/// /1706 10097 21055 39850 40095 55003 333 55306 20461 60005 91109 91206=
06770 23/// /3408 10122 21101 39735 40090 53007 333 55308 20677 60005 91127 91215=
06771 23/// /0103 10120 21118 39670 40084 53003 333 55304 20475 60005 91128 91210=
06777 23/// /3120 10003 21134 38298 48408 53003 333 55308 20619 60005 91144 91227=
06778 23/// /3002 11051 21104 37932 48422 57004 333 55302 20497 60005 91116 91209=
06779 23/// /2904 11028 21138 38101 48422 55002 333 55304 20619 60005 91125 91213=
06780 23/// /3312 11120 21128 37245 47936 57004 333 55300 20454 69955 91126 91217=
06782 23/// /0504 11012 21026 38753 48432 53001 333 55300 20212 60005 91115 91208=
06783 23/// /3006 11025 21086 38274 48425 53002 333 55300 20536 60005 91118 91208=
06784 23/// /1901 11039 21058 38326 48432 55001 333 55300 20292 69915 91117 91210=
06785 23/// /1601 11066 21076 38031 48433 55001 333 55300 20223 69945 91111 91207=
06786 21356 70403 10029 20001 39481 40151 53002 71552 333 55300 20248 60005 87707 91116 91208=
06787 23/// /3101 10002 21022 38987 48433 53002 333 55300 20173 60005 91111 91206=
06788 23/// /0203 10027 21083 38860 48424 55003 333 55300 20310 60005 91112 91206=
06791 23/// /2917 11158 21193 36669 47935 57003 333 55306 20626 60005 91131 91223=
06792 22865 60508 11039 21110 38199 48424 55004 333 55301 20378 60005 86657 91122 91213=
06793 23/// /0207 11044 21049 38356 48436 55002 333 55300 20353 69915 91116 91211=
06794 23/// /0610 10041 21127 38862 48418 52001 333 55302 20335 60005 91129 91217=
06795 23/// /3509 11126 21131 37250 47939 55004 333 55300 20374 60005 91132 91213=
06796 23/// /1904 11014 21102 38537 48419 57002 333 55301 20209 60005 91118 91210=
06797 23/// /3314 11083 21180 37642 48425 57007 333 55300 20234 60005 91126 91218=
06798 23/// /3102 11018 21063 38626 48422 57005 333 55301 20403 60005 91108 91204=
06799 43/// /0303 11099 21152 37523 47954 55005 333 55306 20598 91134 91217=
06842 42975 725// 10049 2//// 39672 5//// 876// 333 87459=
06848 41357 8//// 1//// 2//// 3//// 5//// 77174 886// 333 88707 444 27163=
06990 21656 83602 10045 20004 39596 40148 53002 72055 886// 333 55300 20248 60005 88745 91116 91209=
07002 22666 42719 10063 20008 30019 40102 56009 84200 333 60007 84833 90710 91127 92437 555 60005=
07003 24681 /2809 10074 20006 30083 40108 56009 700// 333 4/000 60007 90710 91121 555 60005=
07005 24/70 /2710 10050 20002 30026 40115 55006 700// 333 4/000 69927 90710 91128 555 60005=
07010 26/// /2715 10069 20008 30075 40095 55004 333 4//// 60007 90710 91126 555 60005=
07015 24683 /2613 10070 21009 30046 40104 55004 700// 333 4/000 60007 90710 91123 555 60005=
07020 22568 62719 10088 20030 30124 40134 55004 86800 333 60007 86626 84833 90710 91129 555 60005=
07024 24685 /2611 10064 20011 39968 40135 55004 700// 333 4/000 60007 90710 91124 555 60005=
07027 24681 /2611 10078 20020 30058 40140 55006 700// 333 4/000 60007 90710 91124 555 60005=
07028 26/// /2815 10085 20025 30001 40127 56006 333 4//// 60007 90710 91128 555 60005=
07031 24986 /2812 10077 20022 39963 40137 56004 700// 333 4/000 60007 90710 91120 555 60005=
07037 24583 72710 10051 20019 39945 40131 56006 700// 333 4/000 69967 90710 91122 555 69965=
07038 24585 72710 10078 20012 39967 40135 58004 700// 333 4//// 69907 90710 91118 555 60005=
07040 21564 72411 10066 20013 30070 40119 55004 71562 878// 333 69927 87820 90710 91135 92427 555 69905=
07046 24671 72812 10077 20002 30021 40132 56005 700// 333 4/000 60007 90710 91124 555 60005=
07055 24479 82512 10043 20012 39993 40130 57003 761// 333 4/000 6///7 90710 91122 555 60015=
07057 24/70 /2507 10062 20025 30024 40132 55002 700// 333 4//// 69927 90710 91115 555 60005=
07059 24486 62706 10048 20030 39982 40120 55002 700// 333 4/000 60027 90710 91127 555 60025=
07061 24/70 /2410 10062 20030 39998 40118 55004 700// 333 4/000 60007 90710 91116 555 60005=
07072 24470 72707 10065 20031 30010 40126 55002 700// 333 4/000 69907 90710 91114 555 60005=
07075 24570 62607 10054 20013 39939 40120 55001 700// 333 4/000 60007 90710 91115 555 60005=
07093 24465 82511 10033 20021 39811 40127 56009 761// 333 4/000 60017 90710 91115 555 69925=
07100 21568 82925 10070 20040 30089 40173 53004 78086 884// 333 69907 91036 90710 91144 92457 555 69905=
07103 26/// /2924 1//// 2//// 3//// 4//// 333 4//// 6///7 91039 90710 91139 555 6///5=
07107 21465 72919 10074 20044 30146 40168 53002 72782 85820 333 69987 91031 90710 91143 92447 555 69985=
07110 24682 72810 10080 20031 30055 40175 53001 700// 333 4/000 69907 90710 91120 555 60005=
07117 22470 72614 10077 20043 30090 40161 53001 85570 333 60017 90710 91133 92438 555 60015=
07118 24586 /2614 10079 20034 30060 40166 55001 700// 333 4/000 69927 90710 91125 555 60005=
07120 24570 63010 10069 20033 30000 40165 55002 700// 333 4/000 69947 90710 91119 555 60005=
07125 24685 62511 10075 20030 30081 40161 55004 700// 333 4/000 60007 90710 91120 555 60005=
07130 24883 /2812 10092 20023 30121 40166 55004 700// 333 4/000 60007 90710 91119 555 60005=
07134 24670 /2905 10086 20026 30039 40161 56003 700// 333 4/000 60007 90710 91114 555 60005=
07139 24970 /2707 10066 20036 39977 40154 55002 700// 333 4/000 69947 90710 91118 555 69945=
07140 24686 /2910 10077 20017 39999 40154 55000 700// 333 4//// 69907 90710 91125 555 69905=
07143 24570 /2806 10075 20011 39956 40145 55000 700// 333 4/000 60007 90710 91117 555 60005=
07145 24570 /2804 10065 20020 39926 40138 55001 700// 333 4//// 69907 90710 91117 555 60005=
07146 24585 /2604 10058 20026 39942 40139 55000 700// 333 4/000 69947 90710 91111 555 60005=
07149 21580 52606 10064 20030 30031 40141 53001 70186 85800 333 69947 83820 83630 90710 91110 93100 555 69905=
07150 24985 /2707 10064 20032 30078 40138 55001 700// 333 4/000 69987 90710 91112 555 60005=
07153 24570 63105 10040 20025 30030 40144 53003 700// 333 4/000 69927 90710 91128 555 69925=
07156 24/70 /2704 10054 20031 30044 40140 55000 700// 333 4/000 60027 90710 91111 555 60005=
07157 21480 22707 10066 20027 39999 40136 55000 70186 81132 333 69947 81818 90710 91118 93100 555 60005=
07166 24476 62613 10056 20026 39928 40132 55002 700// 333 4/000 69947 90710 91120 555 60005=
07168 24670 /2610 10056 20029 39995 40140 55001 700// 333 4/000 60017 90710 91118 555 60005=
07169 24467 82509 10052 20035 39964 40133 55005 700// 333 4//// 69907 90710 91118 555 69905=
07180 24568 82409 10045 20022 39870 40131 55008 761// 333 4/000 69947 90710 91122 555 69905=
07181 24482 82309 10028 20019 39716 40134 55005 761// 333 4//// 69967 90710 91119 555 69945=
07190 24558 82703 10050 20027 39945 40130 56011 760// 333 4/000 69947 90710 91108 555 69925=
07200 21570 52824 1//// 2//// 3//// 4//// 70182 84871 333 6///7 90710 91131 92448 555 6///5=
07201 24569 /2812 10087 20031 30080 40184 55000 700// 333 4/000 60007 90710 91123 555 60005=
07203 22575 62927 10087 20041 85840 333 60007 90710 91139 92448 555 60005=
07205 24581 82913 10090 20036 30126 40180 55004 700// 333 4/000 69927 90710 91125 555 60005=
07207 26/// /2815 10095 20037 30138 40191 55000 333 4//// 60007 91027 90710 91133 555 60005=
07217 24683 72713 10103 20036 30174 40178 55005 700// 333 4/000 60007 90710 91121 555 60005=
07222 24680 /2712 10101 20036 30145 40177 55006 700// 333 4/000 60007 90710 91118 555 60005=
07230 24/70 /2910 10096 20015 30111 40170 55005 700// 333 4/000 60007 90710 91117 555 60005=
07235 24670 /2810 10095 20011 30097 40160 55003 700// 333 4/000 60007 90710 91118 555 60005=
07240 24678 72907 10091 20020 30025 40161 55002 700// 333 4/000 60007 90710 91122 555 60005=
07245 24/70 /2711 10083 20023 39999 40157 55001 700// 333 4/000 60007 90710 91120 555 60005=
07247 24570 73105 10086 20038 30058 40160 55005 700// 333 4//// 69907 90710 91111 555 69905=
07249 24586 62912 10068 20023 39998 40151 55000 700// 333 4/000 60007 90710 91123 555 60005=
07255 24/70 /3008 10074 20038 39959 40161 55005 700// 333 4/000 60017 90710 91116 555 60005=
07257 24470 /2908 10072 20045 39946 40162 55002 700// 333 4//// 69967 90710 91117 555 60005=
07260 24470 82706 10066 20048 39947 40163 55004 700// 333 4/000 60017 90710 91110 555 60005=
07266 24466 82706 10055 20028 39960 40148 55002 761// 333 4/000 69947 90710 91117 555 69945=
07280 24581 82209 10060 20023 39877 40154 55004 761// 333 4/000 69907 90710 91114 555 69905=
07283 24457 82512 10028 20005 39577 40142 55007 763// 333 4/000 60027 90710 91118 555 69985=
07288 26/// /2208 10063 20012 39774 40149 56009 333 4//// 60007 555 60005=
07292 24565 82607 10056 20031 39807 40138 56012 761// 333 4/000 69927 90710 91116 555 69925=
07296 24570 82605 10048 20018 39657 40142 56009 700// 333 4/000 69967 90710 91117 555 69965=
07299 21560 72408 10057 20016 39810 40141 55013 72586 878// 333 69927 82826 84656 87657 90710 91115 93100 555 69905=
07300 26/// /3111 10099 20041 30151 40190 55002 333 4//// 60007 90710 91120 555 60005=
07306 24586 /3009 10088 20044 30074 40183 55003 700// 333 4/000 60007 90710 91116 555 60005=
07314 21668 42911 10105 20066 30166 40194 52002 71500 83862 333 69947 83833 90710 91116 555 60005=
07316 24983 /2910 10099 20075 30169 40191 52002 700// 333 4/000 60017 90710 91115 555 60005=
07330 24/70 /2809 10100 20046 30110 40184 57003 700// 333 4/000 69907 90710 91114 555 60005=
07335 24685 /2808 10084 20020 30030 40176 55001 700// 333 4/000 60007 90710 91115 555 60005=
07354 24584 73013 10080 20042 39977 40168 55000 700// 333 4/000 60047 90710 91121 555 60005=
07361 24/70 /2707 10075 20030 39730 40169 55006 700// 333 4/000 69907 90710 91117 555 60005=
07374 24/70 /2507 10089 20022 39862 40164 55005 700// 333 4//// 60007 90710 91116 555 60005=
07379 24686 82405 10085 20014 39864 40156 56011 700// 333 4/000 60007 90710 91114 555 60005=
07385 24/70 /3204 10075 20026 39898 40164 56007 700// 333 4/000 69907 90710 91111 555 69905=
07386 24479 82111 10049 20037 39919 40158 55006 761// 333 4/000 69987 90710 91126 555 69985=
07412 24585 /3106 10099 20057 30154 40192 55002 700// 333 4//// 69907 90710 91122 555 69905=
07434 24568 62609 10052 20042 39695 40182 56007 700// 333 4/000 60057 90710 91122 555 60025=
07438 24/68 /2706 10106 20058 30049 40191 55003 700// 333 4/000 69907 90710 91112 555 60005=
07460 24683 72911 10087 20020 39778 40169 55001 700// 333 4/000 60007 90710 91118 555 60005=
07471 24670 63008 10054 21013 39192 4//// 55004 700// 333 4/000 60007 90710 91122 555 60005=
07480 24786 81204 10089 20029 39927 40167 55008 700// 333 4/000 69907 90710 91109 555 69905=
07481 22684 71504 10087 20020 39878 40168 55007 878// 333 69907 81843 87656 90710 91107 93100 555 69905=
07482 24/70 /1804 10084 20034 39865 40169 56005 700// 333 4/000 60007 90710 91110 555 60005=
07486 24884 82001 10077 20006 39711 40174 55003 700// 333 4/000 69927 90710 91103 555 60005=
07487 26/// /0602 10095 20021 39904 40169 55001 333 4//// 60007 90710 91106 555 60005=
07490 24786 81907 10067 20014 39624 40169 55000 700// 333 4/000 60007 90710 91114 555 60005=
07491 24668 81708 10085 20016 39889 40173 55001 700// 333 4/000 60007 90710 91114 555 60005=
07497 26/// /0000 10031 20007 39140 48453 55002 333 4/025 69967 90710 91107 555 69925=
07500 21860 72716 10119 20082 30173 40207 58003 76066 8707/ 333 69947 86357 87457 90710 91124 92457 555 69905=
07503 24761 62815 10113 20089 30163 40210 50000 700// 333 4//// 69947 90710 91127 555 69925=
07510 24585 62708 10110 20084 30144 40202 57002 700// 333 4/000 69947 90710 91119 555 69945=
07524 24684 73011 10109 20068 30118 40202 55003 700// 333 4/000 69907 90710 91119 555 69905=
07530 24556 83113 10099 20062 30134 40197 55002 763// 333 4/000 69947 90710 91118 555 69945=
07535 24559 82807 10080 20056 39881 40197 55000 761// 333 4/000 69947 90710 91117 555 69945=
07540 24/70 /3009 10117 20070 30070 40199 55005 700// 333 4/000 69907 90710 91117 555 60005=
07549 24469 62708 10057 20039 39426 40186 55005 700// 333 4/000 60017 90710 91114 555 69905=
07552 24485 83108 10059 20044 39502 40192 55001 700// 333 4/000 69927 90710 91120 555 69905=
07554 24870 /3110 10038 21004 39087 4//// 55003 700// 333 4/000 69907 90710 91130 555 60005=
07558 24/69 /3317 10049 20028 39339 40183 55001 700// 333 4/000 69907 90710 91128 555 69905=
07560 24/01 /3429 11011 21011 38389 4//// 55007 749// 333 4//// 69947 91045 90710 91147 555 69925=
07563 24986 /3613 10131 20026 30098 40156 55004 700// 333 4/000 60007 90710 91120 555 60005=
07570 24/70 /3510 10114 21008 39837 40171 55003 700// 333 4//// 69907 90710 91120 555 60005=
07577 24/70 /0307 10105 20023 30077 40167 51004 700// 333 4/000 60007 90710 91113 555 60005=
07579 24986 /3612 10123 20024 30093 40159 53001 700// 333 4//// 60007 90710 91124 555 60005=
07586 26/// /3408 10117 20004 30028 40156 55001 333 4//// 60007 90710 91122 555 60005=
07588 24870 /3309 10122 21028 39586 40126 53002 700// 333 4/000 60007 90710 91122 555 60005=
07591 24/70 /2116 10070 21038 39109 4//// 55003 700// 333 4//// 60007 91030 90710 91130 555 60005=
07600 22558 82618 10123 20086 30181 40233 52003 888// 333 69927 85826 83633 90710 91127 92456 555 69925=
07602 24462 72812 10116 20090 30142 40228 51002 760// 333 4/000 69927 90710 91122 555 69925=
07603 26/60 /2709 10129 20073 30181 40219 52001 333 4/000 60007 90710 91118 555 60005=
07607 24568 73105 10113 20082 30142 40214 53001 700// 333 4/000 69927 90710 91121 555 69925=
07610 24582 82612 10118 20067 39998 40218 55003 700// 333 4/000 60007 90710 91123 555 60005=
07621 24485 62512 10100 20046 39787 40223 55002 700// 333 4/000 69907 90710 91124 555 69905=
07622 24/70 /2807 10127 20056 30054 40208 55002 700// 333 4/000 69947 90710 91116 555 60005=
07627 24770 72811 10112 20020 39713 40205 56004 700// 333 4/000 69987 90710 91121 555 60005=
07628 24564 83115 10105 20077 39977 40206 55001 700// 333 4//// 69987 90710 91124 555 60005=
07630 24582 73015 10106 20058 30020 40202 55002 700// 333 4/000 69987 90710 91124 555 69925=
07632 24/70 /2806 10108 20055 39987 40193 55004 700// 333 4/000 69907 90710 91113 555 60005=
07635 24684 82811 10101 20072 30035 40189 55008 700// 333 4/000 69927 90710 91134 555 69905=
07638 24785 73113 10138 20041 30155 40174 55002 700// 333 4/000 60007 90710 91128 555 60005=
07641 22970 53411 10130 20039 30078 40171 55000 85040 333 60007 85358 90710 91129 92428 555 60005=
07643 24885 63217 10142 20030 30159 40169 53001 700// 333 4//// 60007 90710 91124 555 60005=
07645 26/// /2907 10133 20025 30085 40160 53002 333 4/000 60007 90710 91124 555 60005=
07646 24982 /3216 10140 20016 30030 40156 55002 700// 333 4//// 60007 90710 91125 555 60005=
07647 24779 /3415 10153 20024 30124 40153 55002 700// 333 4//// 60007 90710 91127 555 60005=
07648 24885 /3313 10132 20024 30083 40154 55001 700// 333 4//// 60007 90710 91119 555 60005=
07650 24886 /3111 10138 20030 30113 40151 55002 700// 333 4/000 60007 90710 91123 555 60005=
07661 26/// /2921 10132 20018 39980 40127 53003 333 4//// 60007 91038 90710 91141 555 60005=
07666 26/// /3112 10136 20062 30126 40174 55010 333 4//// 60007 90710 91139 555 60005=
07667 24985 /2917 10145 20010 30122 40127 53003 700// 333 4//// 60007 90710 91129 555 60005=
07675 24/83 /2823 10151 20001 30013 40110 53003 700// 333 4/001 60007 91034 90710 91134 555 60005=
07684 24983 /2911 10181 21082 30080 40085 53004 700// 333 4//// 60007 90710 91127 555 60005=
07690 22/84 40812 10133 20090 30049 40080 55004 80001 333 60007 84076 90710 91119 555 60005=
07747 24684 /3020 10152 20048 30121 40174 56009 700// 333 4/000 60007 91032 90710 91140 555 60005=
07753 26/// /2336 10136 20039 39917 40089 53003 333 4//// 60007 91055 90710 91159 555 60005=
07754 24685 /2214 10142 20047 30044 40113 55004 700// 333 4//// 60007 90710 91134 555 60005=
07761 24665 /0000 10144 20092 30127 40138 56014 700// 333 4/000 60007 90710 91107 555 60005=
07765 24985 /2717 10167 20007 30075 40095 56013 700// 333 4//// 60007 91033 90710 91133 555 60005=
07770 26/// ///31 10128 20102 39977 40115 56017 333 4//// 69907 90710 91140 555 60005=
07775 26/// /0108 10130 20087 30005 40093 56008 333 4//// 60007 90710 91112 555 60005=
07780 24681 /2616 10140 20080 30097 40125 55014 700// 333 4//// 60007 90710 91132 555 60005=
07785 26/// /2641 10138 20073 39953 40087 51002 333 4//// 60007 91063 90710 91163 555 60005=
07790 24982 /1203 10135 20101 30087 40101 53001 700// 333 4/000 60007 90710 91108 555 60005=
08001 26/65 /2806 10135 20085 30191 40272 55005 333 60007=
08002 26/58 /3106 10129 20072 30143 40268 55008 333 60007=
08008 26/69 /3002 10121 20048 39734 40264 55011 333 60007=
08011 21770 62909 10132 20091 30102 40258 55004 70262 85432 333 69927=
08014 42680 61803 10146 20040 30247 40255 55005 85861=
08015 22570 62906 10118 20052 39849 40255 55007 86210 333 60007=
08021 21568 72712 10131 20093 30245 40247 55002 70152 87800 333 69907=
08023 22560 72816 10124 20092 30170 40242 55004 86872 333 69907=
08025 21350 82804 10108 20089 30195 40243 52002 76062 888// 333 69987=
08027 41465 63411 10093 20079 39923 40236 52003 70266 8587/=
08029 41559 72412 10121 20082 30225 40235 53004 76265 8678/=
08042 22480 53404 10118 20053 39829 40268 55009 85800 333 60007=
08044 22570 33304 10133 20069 30127 40258 56010 81101 333 60007=
08045 22582 13607 10136 20062 39953 40262 57008 81102 333 60007=
08048 26/70 /1802 10155 20070 30077 40253 57011 333 60007=
08053 26/70 /2908 10128 20042 39597 40242 57008 333 60007=
08055 22684 20107 10108 20015 39170 48541 53001 81201 333 60007=
08075 22372 22002 10102 20056 39194 42840 58002 82804 333 60007=
08080 21460 73309 10082 20063 39635 40244 51009 76062 877// 333 69947=
08084 22680 53008 10114 20055 39796 40229 53006 84520 333 69907=
08085 22580 63311 10082 20052 39690 40234 55000 86800 333 69917=
08130 26/70 /2303 10145 20050 39451 40221 56011 333 60007=
08140 42970 03308 10106 20034 39247 48542 57006 80000=
08141 22570 33305 10121 20041 39369 40221 56011 82104 333 60007=
08148 26/70 /3404 10111 20005 38974 48532 55004 333 60007=
08160 22580 53410 10150 20073 39898 40203 55005 81458 333 60007=
08171 26/70 /0505 10123 20055 39945 40183 56013 333 60007=
08175 22680 21208 10153 20064 30081 40172 55007 81108 333 60007=
08181 22965 30104 10130 20044 30172 40179 55004 81076 333 60007=
08184 22682 60000 10121 20064 30018 40173 55001 86801 333 60007=
08202 22970 13508 10121 20039 39309 42848 55011 80001 333 60007=
08210 26/70 /3210 10095 20026 38936 48545 55007 333 60007=
08213 26/70 /3205 10094 20040 39073 48543 55008 333 60007=
08215 22281 23609 10023 21003 38142 48539 55004 81101 333 60007=
08221 22980 03303 10154 20021 39525 40198 55010 80000 333 60007=
08224 42981 12103 10148 20048 39482 40195 57014 80001=
08226 26/70 /3504 10154 20029 39359 40187 55003 333 60007=
08231 22970 03504 10154 20000 39107 42821 56009 80000 333 60007=
08232 26/70 /3406 10117 20001 38994 48533 55002 333 60007=
08233 26/69 /3305 10121 20020 39187 42834 55007 333 60007=
08235 26/70 /3306 10120 20010 39159 42822 56010 333 60007=
08238 21758 53203 10198 20043 30114 40173 56008 70422 81406 333 60007=
08261 26/70 /3207 10168 20057 39754 40210 56009 333 60007=
08272 26/70 /2804 10169 20036 39598 40194 57011 333 60007=
08284 22975 41804 10187 20026 30107 40181 55015 80006 333 60007=
08286 26/70 /1804 10178 20063 30126 40178 55008 333 60007=
08306 22570 72705 10149 20099 30179 40185 55005 81846 333 60007=
08314 22670 72906 10140 20098 30079 40182 55002 81175 333 60007=
08330 21970 03601 10184 20081 39990 40216 56012 7000/ 80000 333 60007=
08348 26/70 /3603 10159 20033 39478 40202 55007 333 60007=
08359 26/70 /2003 10169 20058 30090 40187 56008 333 60007=
08360 22975 81904 10176 20076 30152 40189 56009 83027 333 60007=
08373 22469 82407 10149 20109 30167 40188 55006 82775 333 60007=
08383 26/70 /1906 10200 20098 30189 40213 55005 333 60007=
08391 22975 01705 10178 20085 30173 40210 56008 80000 333 60007=
08397 42970 00202 10167 20065 30109 40214 54000 80000=
08410 22970 00000 10173 20078 30099 40208 56009 80000 333 60007=
08417 26/70 /1801 10143 20046 39530 40203 50001 333 60007=
08419 22680 42702 10153 20058 39535 40194 55006 81115 333 60007=
08429 42980 62203 10158 20063 30107 40197 56009 80008=
08430 21567 62605 10162 20063 30119 40193 56008 70122 81116 333 60007=
08433 22980 80402 10157 20094 30190 40194 55006 85076 333 60007=
08451 26/// /3206 10174 20083 30184 40217 53003 333 60007=
08482 22570 21407 10178 20123 30197 40206 56006 81101 333 60007=
08487 22980 72102 10154 20125 30168 40193 56007 84072 333 60007=
08495 42675 22406 10182 20109 30203 40209 55003 81108 333 81830=
08594 42465 60721 10245 20152 40175 84202 333 59008 84614 85070=



SMUS00 KWBC 191500
AAXX 19154